METAR Data

Data at: 0614 UTC 28 Sep 2022

METAR for:KMVY (Marthas Vineyard Arp, MA, US)
Text:KMVY 280553Z AUTO 26003KT 10SM CLR 13/09 A2996 RMK AO2 SLP145 T01280089 10161 20094 51011
Temperature: 12.8°C ( 55°F)
Dewpoint: 8.9°C ( 48°F) [RH = 77%]
Pressure (altimeter):29.96 inches Hg (1014.6 mb) [Sea level pressure: 1014.5 mb]
Winds:from the W (260 degrees) at 3 MPH (3 knots; 1.5 m/s)
Visibility:10 or more sm (16+ km)
Ceiling:at least 12,000 feet AGL
Clouds:sky clear below 12,000 feet AGL
QC Flag:automated observation with no human augmentation